Time;durP1;ratioP1;P1;durP2;ratioP2;P2;SDS_P1;SDS_P2;PMS_P1;PMS_P2;Temp;Humidity;BMP_temperature;BMP_pressure;BME280_temperature;BME280_humidity;BME280_pressure;Samples;Min_cycle;Max_cycle;Signal;HPM_P1;HPM_P2
2022/03/03 00:01:34;;;;;;;33.42;16.52;;;-0.70;79.00;;;;;;4955788;29;20204;-82
2022/03/03 00:04:00;;;;;;;29.00;21.00;;;-0.90;79.60;;;;;;4955330;28;20212;-81
2022/03/03 00:06:29;;;;;;;26.80;18.80;;;-1.00;83.30;;;;;;4955283;29;20201;-82
2022/03/03 00:08:55;;;;;;;28.40;22.30;;;-1.10;83.80;;;;;;4954986;28;20197;-81
2022/03/03 00:11:22;;;;;;;28.70;23.88;;;-1.30;83.60;;;;;;4955409;28;20618;-82
2022/03/03 00:13:49;;;;;;;24.17;20.55;;;-1.40;85.80;;;;;;4955978;29;20233;-81
2022/03/03 00:16:16;;;;;;;29.98;20.23;;;-1.50;86.50;;;;;;4955131;29;20199;-82
2022/03/03 00:18:43;;;;;;;28.83;24.25;;;-1.50;87.70;;;;;;4955699;28;20224;-82
2022/03/03 00:21:10;;;;;;;29.05;25.30;;;-1.50;88.30;;;;;;4955387;29;20204;-82
2022/03/03 00:23:38;;;;;;;34.22;24.13;;;-1.50;89.20;;;;;;4955513;29;20220;-82
2022/03/03 00:26:05;;;;;;;33.95;23.38;;;-1.60;89.60;;;;;;4955400;28;20193;-82
2022/03/03 00:28:31;;;;;;;27.52;24.58;;;-1.70;90.20;;;;;;4954149;28;20224;-82
2022/03/03 00:30:58;;;;;;;35.25;26.92;;;-1.80;90.80;;;;;;4955607;28;20207;-81
2022/03/03 00:33:25;;;;;;;33.22;29.75;;;-1.70;91.10;;;;;;4955953;28;20287;-82
2022/03/03 00:35:52;;;;;;;30.40;26.25;;;-1.80;91.80;;;;;;4955347;28;20512;-82
2022/03/03 00:38:18;;;;;;;32.15;28.27;;;-1.80;91.00;;;;;;4955151;28;20212;-81
2022/03/03 00:40:47;;;;;;;32.97;29.45;;;-1.80;90.90;;;;;;4955345;28;20196;-83
2022/03/03 00:43:13;;;;;;;33.83;30.52;;;-1.90;91.30;;;;;;4955401;28;20209;-81
2022/03/03 00:45:40;;;;;;;29.73;26.25;;;-1.90;91.80;;;;;;4955474;29;20204;-82
2022/03/03 00:48:07;;;;;;;26.58;23.70;;;-1.90;91.70;;;;;;4936131;29;20220;-79
2022/03/03 00:50:34;;;;;;;34.47;27.63;;;-1.90;91.10;;;;;;4935894;29;20208;-82
2022/03/03 00:53:01;;;;;;;28.70;24.85;;;-1.90;91.60;;;;;;4955928;29;20201;-81
2022/03/03 00:55:28;;;;;;;35.92;32.17;;;-1.90;91.80;;;;;;4954555;28;20665;-82
2022/03/03 00:57:56;;;;;;;36.72;33.40;;;-1.90;92.60;;;;;;4954455;28;20220;-82
2022/03/03 01:00:23;;;;;;;35.20;31.48;;;-1.80;92.80;;;;;;4954561;28;20208;-82
2022/03/03 01:02:51;;;;;;;38.67;34.80;;;-1.90;92.80;;;;;;4955422;29;20203;-82
2022/03/03 01:05:18;;;;;;;35.00;30.85;;;-1.80;92.80;;;;;;4954467;28;20293;-82
2022/03/03 01:07:46;;;;;;;32.78;29.33;;;-1.80;92.50;;;;;;4955346;28;20257;-81
2022/03/03 01:10:13;;;;;;;33.75;30.38;;;-1.70;92.10;;;;;;4954547;29;20212;-82
2022/03/03 01:12:40;;;;;;;39.80;35.95;;;-1.60;92.20;;;;;;4954855;28;20192;-81
2022/03/03 01:15:12;;;;;;;44.00;40.35;;;-1.40;91.60;;;;;;4955325;28;20200;-82
2022/03/03 01:17:39;;;;;;;35.53;32.03;;;-1.30;92.20;;;;;;4954395;29;20217;-82
2022/03/03 01:20:07;;;;;;;32.85;25.98;;;-1.50;91.50;;;;;;4954597;29;20208;-83
2022/03/03 01:22:34;;;;;;;29.85;22.60;;;-1.50;91.00;;;;;;4957817;28;20208;-82
2022/03/03 01:25:01;;;;;;;29.00;20.65;;;-1.40;90.40;;;;;;4958046;29;20599;-81
2022/03/03 01:27:28;;;;;;;26.52;18.45;;;-1.40;88.40;;;;;;4957959;29;20216;-82
2022/03/03 01:29:54;;;;;;;34.88;19.33;;;-1.50;88.50;;;;;;4958549;28;20196;-82
2022/03/03 01:32:22;;;;;;;22.65;17.13;;;-1.60;88.40;;;;;;4958830;28;20200;-81
2022/03/03 01:34:49;;;;;;;27.98;18.42;;;-1.70;87.30;;;;;;4958213;28;20188;-81
2022/03/03 01:37:16;;;;;;;26.45;17.60;;;-1.70;88.10;;;;;;4958114;29;20724;-82
2022/03/03 01:39:42;;;;;;;31.75;16.58;;;-1.70;86.70;;;;;;4957699;28;20196;-81
2022/03/03 01:42:09;;;;;;;24.23;17.88;;;-1.80;87.30;;;;;;4957887;28;20219;-82
2022/03/03 01:44:36;;;;;;;22.45;15.60;;;-1.90;87.50;;;;;;4958060;29;20223;-81
2022/03/03 01:47:03;;;;;;;26.45;17.30;;;-1.90;87.70;;;;;;4957865;28;20213;-81
2022/03/03 01:49:31;;;;;;;30.50;18.40;;;-1.90;88.40;;;;;;4957987;28;20200;-82
2022/03/03 01:51:58;;;;;;;26.95;20.52;;;-1.90;89.20;;;;;;4958232;28;20209;-82
2022/03/03 01:54:24;;;;;;;29.33;22.08;;;-2.00;90.20;;;;;;4958376;29;20193;-81
2022/03/03 01:56:51;;;;;;;25.98;19.02;;;-1.80;90.10;;;;;;4958115;28;20220;-81
2022/03/03 01:59:19;;;;;;;27.63;18.88;;;-1.80;88.50;;;;;;4958064;28;20200;-82
2022/03/03 02:01:47;;;;;;;28.77;20.13;;;-1.80;87.80;;;;;;4958120;29;20203;-82
2022/03/03 02:04:13;;;;;;;26.48;18.25;;;-1.80;87.50;;;;;;4957376;29;20212;-82
2022/03/03 02:06:41;;;;;;;25.08;16.23;;;-1.50;83.40;;;;;;4958244;28;20197;-82
2022/03/03 02:09:08;;;;;;;27.13;16.77;;;-1.50;81.10;;;;;;4957852;28;20207;-81
2022/03/03 02:11:36;;;;;;;25.90;18.23;;;-1.60;83.30;;;;;;4957628;29;20196;-81
2022/03/03 02:14:03;;;;;;;36.10;16.58;;;-1.70;84.60;;;;;;4957410;28;20195;-81
2022/03/03 02:16:30;;;;;;;23.85;18.17;;;-1.70;86.80;;;;;;4957181;28;20200;-82
2022/03/03 02:18:57;;;;;;;27.23;20.05;;;-1.80;88.70;;;;;;4957193;28;20200;-81
2022/03/03 02:21:26;;;;;;;25.45;19.05;;;-1.80;90.00;;;;;;4957714;29;20207;-81
2022/03/03 02:23:53;;;;;;;26.02;18.77;;;-1.90;88.60;;;;;;4957483;29;20723;-81
2022/03/03 02:26:21;;;;;;;23.05;17.38;;;-1.90;88.50;;;;;;4957662;29;20204;-82
2022/03/03 02:28:49;;;;;;;23.50;17.20;;;-1.60;86.10;;;;;;4959250;29;20224;-82
2022/03/03 02:31:16;;;;;;;24.05;16.85;;;-1.40;81.50;;;;;;4959373;28;20197;-83
2022/03/03 02:33:43;;;;;;;20.95;13.50;;;-1.20;78.90;;;;;;4958497;28;20197;-81
2022/03/03 02:36:18;;;;;;;23.02;15.60;;;-1.30;78.10;;;;;;4958585;28;20192;-82
2022/03/03 02:38:46;;;;;;;25.98;15.77;;;-1.40;77.60;;;;;;4957994;28;20222;-82
2022/03/03 02:41:13;;;;;;;26.13;14.55;;;-1.40;77.70;;;;;;4958419;28;20196;-82
2022/03/03 02:43:40;;;;;;;27.02;15.82;;;-1.20;76.60;;;;;;4958817;29;20614;-82
2022/03/03 02:46:07;;;;;;;21.85;15.77;;;-1.20;76.30;;;;;;4957466;29;20196;-82
2022/03/03 02:48:35;;;;;;;24.42;15.48;;;-1.10;74.70;;;;;;4957738;28;20220;-82
2022/03/03 02:51:02;;;;;;;24.67;15.20;;;-1.00;74.50;;;;;;4957897;29;20196;-81
2022/03/03 02:53:29;;;;;;;32.63;16.95;;;-0.70;71.90;;;;;;4957963;29;20200;-82
2022/03/03 02:55:57;;;;;;;22.90;13.70;;;-0.80;71.80;;;;;;4958499;29;20197;-81
2022/03/03 02:58:24;;;;;;;25.83;15.77;;;-0.80;73.00;;;;;;4940496;29;20231;-82
2022/03/03 03:00:51;;;;;;;25.65;15.68;;;-0.80;72.90;;;;;;4942392;29;20192;-82
2022/03/03 03:03:19;;;;;;;24.00;16.20;;;-0.80;72.10;;;;;;4948691;28;20193;-82
2022/03/03 03:05:47;;;;;;;22.25;15.70;;;-1.00;73.10;;;;;;4945986;29;20193;-82
2022/03/03 03:08:14;;;;;;;29.58;17.73;;;-1.20;75.80;;;;;;4949290;28;20220;-82
2022/03/03 03:10:42;;;;;;;27.40;16.45;;;-1.40;76.40;;;;;;4952359;28;20568;-82
2022/03/03 03:13:14;;;;;;;27.90;19.40;;;-1.50;77.30;;;;;;4948122;29;20581;-82
2022/03/03 03:15:41;;;;;;;24.73;17.23;;;-1.70;80.00;;;;;;4952695;28;20185;-82
2022/03/03 03:18:10;;;;;;;35.40;18.25;;;-1.80;83.20;;;;;;4947825;29;20223;-79
2022/03/03 03:20:37;;;;;;;29.35;19.75;;;-1.90;85.70;;;;;;4957595;28;20437;-80
2022/03/03 03:23:04;;;;;;;32.30;23.38;;;-1.90;87.40;;;;;;4948966;28;20674;-80
2022/03/03 03:25:30;;;;;;;33.75;24.42;;;-1.90;88.90;;;;;;4948305;29;20222;-82
2022/03/03 03:27:57;;;;;;;34.38;23.75;;;-1.90;89.50;;;;;;4956865;28;20227;-80
2022/03/03 03:30:25;;;;;;;23.38;20.23;;;-1.80;88.60;;;;;;4956333;29;20196;-82
2022/03/03 03:32:52;;;;;;;31.83;21.25;;;-1.70;87.50;;;;;;4956252;29;20193;-80
2022/03/03 03:35:19;;;;;;;22.95;19.23;;;-1.60;87.10;;;;;;4956348;29;20192;-81
2022/03/03 03:37:45;;;;;;;27.67;19.02;;;-1.60;86.60;;;;;;4956091;29;20218;-82
2022/03/03 03:40:13;;;;;;;29.27;22.92;;;-1.60;86.70;;;;;;4955971;29;20579;-80
2022/03/03 03:42:40;;;;;;;28.67;19.50;;;-1.70;86.90;;;;;;4955550;29;20720;-82
2022/03/03 03:45:08;;;;;;;25.15;20.52;;;-1.60;88.10;;;;;;4955806;28;20213;-82
2022/03/03 03:47:36;;;;;;;27.35;20.20;;;-1.60;86.90;;;;;;4955813;28;20301;-82
2022/03/03 03:50:04;;;;;;;28.48;20.27;;;-1.70;87.00;;;;;;4956173;29;20203;-81
2022/03/03 03:52:31;;;;;;;30.88;18.95;;;-1.90;86.40;;;;;;4956225;29;20287;-82
2022/03/03 03:54:58;;;;;;;30.02;20.98;;;-1.90;87.60;;;;;;4955785;29;20203;-81
2022/03/03 03:57:25;;;;;;;29.63;19.02;;;-2.00;88.90;;;;;;4979032;23;21059;-81
2022/03/03 03:59:51;;;;;;;26.90;23.05;;;-2.00;88.70;;;;;;4961970;28;20188;-81
2022/03/03 04:02:18;;;;;;;28.67;22.73;;;-1.90;89.00;;;;;;4961496;29;20239;-81
2022/03/03 04:04:46;;;;;;;30.42;20.52;;;-1.80;88.30;;;;;;4961592;29;20225;-80
2022/03/03 04:07:13;;;;;;;23.58;20.63;;;-2.00;87.70;;;;;;4961830;28;20196;-81
2022/03/03 04:09:40;;;;;;;25.98;20.17;;;-1.90;87.00;;;;;;4960855;29;20293;-79
2022/03/03 04:12:09;;;;;;;30.00;21.23;;;-1.80;85.90;;;;;;4959787;29;20208;-80
2022/03/03 04:14:36;;;;;;;24.90;17.67;;;-1.80;85.30;;;;;;4961863;29;20196;-82
2022/03/03 04:17:03;;;;;;;37.85;23.05;;;-1.90;85.60;;;;;;4963428;29;20662;-81
2022/03/03 04:19:30;;;;;;;34.17;21.23;;;-2.00;85.30;;;;;;4961698;28;20673;-80
2022/03/03 04:21:58;;;;;;;28.58;20.33;;;-1.90;87.80;;;;;;4960511;29;20188;-80
2022/03/03 04:24:25;;;;;;;28.02;20.52;;;-2.00;87.00;;;;;;4956584;28;21508;-79
2022/03/03 04:26:52;;;;;;;23.13;18.85;;;-2.10;88.10;;;;;;4962061;29;20200;-81
2022/03/03 04:29:19;;;;;;;29.27;20.00;;;-2.30;88.30;;;;;;4960648;28;20307;-81
2022/03/03 04:31:45;;;;;;;26.85;23.10;;;-2.50;89.50;;;;;;4961453;29;20198;-81
2022/03/03 04:34:12;;;;;;;37.35;30.75;;;-2.60;90.20;;;;;;4961584;28;20200;-80
2022/03/03 04:36:39;;;;;;;39.28;35.70;;;-2.60;91.40;;;;;;4962129;28;20197;-81
2022/03/03 04:39:07;;;;;;;44.30;40.00;;;-2.70;92.50;;;;;;4962807;28;20220;-81
2022/03/03 04:41:34;;;;;;;37.17;33.28;;;-2.60;92.50;;;;;;4960302;29;20298;-80
2022/03/03 04:44:00;;;;;;;43.35;39.10;;;-2.70;92.30;;;;;;4961344;29;20192;-80
2022/03/03 04:46:27;;;;;;;42.03;38.53;;;-2.60;92.60;;;;;;4959120;29;20203;-80
2022/03/03 04:48:59;;;;;;;44.33;40.72;;;-2.50;92.40;;;;;;4960996;28;20224;-81
2022/03/03 04:51:26;;;;;;;46.70;42.70;;;-2.40;92.30;;;;;;4960259;28;20200;-81
2022/03/03 04:53:52;;;;;;;43.70;39.60;;;-2.40;92.10;;;;;;4959232;29;20200;-81
2022/03/03 04:56:21;;;;;;;48.40;44.22;;;-2.30;92.10;;;;;;4962328;28;20562;-80
2022/03/03 04:58:49;;;;;;;43.30;39.80;;;-2.30;92.20;;;;;;4963309;28;20231;-81
2022/03/03 05:01:16;;;;;;;45.47;40.20;;;-2.30;92.00;;;;;;4963197;28;20241;-80
2022/03/03 05:03:43;;;;;;;45.22;40.85;;;-2.20;92.30;;;;;;4962434;29;20196;-79
2022/03/03 05:06:10;;;;;;;43.90;40.20;;;-2.20;92.60;;;;;;4958806;28;20208;-80
2022/03/03 05:08:36;;;;;;;44.58;39.95;;;-2.30;93.00;;;;;;4961608;28;20220;-81
2022/03/03 05:11:03;;;;;;;54.60;50.25;;;-2.30;93.30;;;;;;4963427;28;20200;-80
2022/03/03 05:13:31;;;;;;;56.50;51.53;;;-2.30;93.30;;;;;;4961969;28;20207;-80
2022/03/03 05:15:58;;;;;;;67.35;62.45;;;-2.40;93.30;;;;;;4964513;28;20216;-80
2022/03/03 05:18:25;;;;;;;70.55;65.00;;;-2.40;93.90;;;;;;4962688;28;20724;-80
2022/03/03 05:20:52;;;;;;;75.70;69.30;;;-2.40;93.90;;;;;;4962615;28;20592;-81
2022/03/03 05:23:19;;;;;;;76.65;71.10;;;-2.50;93.90;;;;;;4962966;28;20291;-80
2022/03/03 05:25:46;;;;;;;79.45;74.35;;;-2.60;93.90;;;;;;4962083;29;20216;-80
2022/03/03 05:28:12;;;;;;;109.78;103.53;;;-2.70;94.30;;;;;;4958869;28;20295;-79
2022/03/03 05:30:40;;;;;;;145.00;136.77;;;-2.80;95.30;;;;;;4961577;29;20220;-80
2022/03/03 05:33:07;;;;;;;166.85;158.43;;;-2.90;96.70;;;;;;4962166;29;20200;-80
2022/03/03 05:35:34;;;;;;;189.93;180.73;;;-2.70;99.60;;;;;;4962503;29;20192;-80
2022/03/03 05:38:01;;;;;;;201.63;191.63;;;-2.60;99.60;;;;;;4960549;28;20212;-80
2022/03/03 05:40:30;;;;;;;167.38;158.73;;;-2.70;99.60;;;;;;4962170;29;20260;-81
2022/03/03 05:42:57;;;;;;;163.23;154.15;;;-2.60;99.20;;;;;;4961893;28;20201;-80
2022/03/03 05:45:27;;;;;;;163.27;153.70;;;-2.60;99.10;;;;;;4961420;29;20232;-80
2022/03/03 05:47:55;;;;;;;150.50;142.02;;;-2.70;99.00;;;;;;4962147;29;20224;-79
2022/03/03 05:50:22;;;;;;;176.65;166.68;;;-2.80;99.50;;;;;;4961683;28;20201;-81
2022/03/03 05:52:49;;;;;;;163.25;154.32;;;-2.90;99.50;;;;;;4962704;29;20208;-81
2022/03/03 05:55:15;;;;;;;183.93;173.57;;;-3.00;99.40;;;;;;4962783;29;20280;-81
2022/03/03 05:57:45;;;;;;;204.65;193.18;;;-3.10;99.60;;;;;;4962014;28;20227;-80
2022/03/03 06:00:16;;;;;;;207.75;196.70;;;-3.10;99.90;;;;;;4960452;29;20214;-80
2022/03/03 06:02:50;;;;;;;215.18;203.73;;;-3.10;99.90;;;;;;4962245;29;20578;-80
2022/03/03 06:05:21;;;;;;;210.25;199.05;;;-3.10;99.90;;;;;;4962163;28;20212;-80
2022/03/03 06:07:52;;;;;;;229.90;217.20;;;-3.10;99.90;;;;;;4962018;28;20216;-81
2022/03/03 06:10:21;;;;;;;276.83;262.73;;;-3.10;99.90;;;;;;4961578;29;20200;-80
2022/03/03 06:12:51;;;;;;;260.42;246.93;;;-3.10;99.90;;;;;;4960932;29;20573;-80
2022/03/03 06:15:22;;;;;;;235.30;222.32;;;-2.90;99.90;;;;;;4962869;28;20204;-80
2022/03/03 06:17:49;;;;;;;203.40;192.48;;;-2.90;99.90;;;;;;4960750;28;20220;-81
2022/03/03 06:20:18;;;;;;;191.00;180.65;;;-2.90;99.90;;;;;;4962684;29;20192;-81
2022/03/03 06:22:46;;;;;;;177.60;167.77;;;-2.90;99.90;;;;;;4964384;28;20233;-80
2022/03/03 06:25:13;;;;;;;166.00;157.18;;;-2.80;99.90;;;;;;4963090;28;20212;-79
2022/03/03 06:27:40;;;;;;;138.75;130.95;;;-2.70;99.90;;;;;;4964246;28;20591;-80
2022/03/03 06:30:08;;;;;;;146.52;137.88;;;-2.80;99.90;;;;;;4961603;29;20203;-79
2022/03/03 06:32:35;;;;;;;139.18;131.18;;;-2.70;99.90;;;;;;4962424;29;20192;-80
2022/03/03 06:35:03;;;;;;;124.07;117.15;;;-2.70;99.90;;;;;;4964406;29;20196;-81
2022/03/03 06:37:29;;;;;;;117.25;111.03;;;-2.70;99.90;;;;;;4961963;28;20220;-80
2022/03/03 06:40:00;;;;;;;122.95;115.95;;;-2.70;99.90;;;;;;4963663;29;20854;-80
2022/03/03 06:42:34;;;;;;;96.75;91.07;;;-2.50;99.90;;;;;;4964715;28;20227;-82
2022/03/03 06:45:07;;;;;;;93.07;87.28;;;-2.50;99.90;;;;;;4965277;29;20240;-82
2022/03/03 06:47:34;;;;;;;85.70;79.43;;;-2.40;99.90;;;;;;4965305;29;20216;-81
2022/03/03 06:50:04;;;;;;;72.32;67.38;;;-2.30;99.90;;;;;;4963744;28;20205;-81
2022/03/03 06:52:34;;;;;;;60.83;56.42;;;-2.20;99.90;;;;;;4964134;28;20288;-81
2022/03/03 06:55:03;;;;;;;37.25;33.35;;;-2.30;99.70;;;;;;4963139;28;20546;-80
2022/03/03 06:57:30;;;;;;;47.25;42.88;;;-2.40;98.60;;;;;;4961976;28;20228;-80
2022/03/03 07:00:01;;;;;;;51.65;46.92;;;-2.30;99.30;;;;;;4963730;28;20263;-81
2022/03/03 07:02:28;;;;;;;47.85;36.20;;;-2.30;98.70;;;;;;4963618;28;20284;-80
2022/03/03 07:04:56;;;;;;;40.67;36.58;;;-2.50;97.50;;;;;;4963505;28;20259;-81
2022/03/03 07:07:24;;;;;;;48.58;44.67;;;-2.60;97.90;;;;;;4963577;28;20231;-80
2022/03/03 07:09:51;;;;;;;53.20;48.78;;;-2.60;99.00;;;;;;4962612;28;20226;-80
2022/03/03 07:12:20;;;;;;;64.50;59.72;;;-2.60;99.20;;;;;;4964215;28;20203;-81
2022/03/03 07:14:47;;;;;;;74.15;69.22;;;-2.60;99.60;;;;;;4963849;28;20580;-80
2022/03/03 07:17:25;;;;;;;75.18;70.03;;;-2.60;99.70;;;;;;4962394;28;20292;-80
2022/03/03 07:19:59;;;;;;;73.32;68.53;;;-2.60;99.60;;;;;;4963604;28;20286;-81
2022/03/03 07:22:33;;;;;;;77.03;71.75;;;-2.50;99.90;;;;;;4963801;28;20200;-81
2022/03/03 07:25:03;;;;;;;90.97;84.75;;;-2.30;99.90;;;;;;4962926;28;20227;-80
2022/03/03 07:27:31;;;;;;;77.15;71.10;;;-2.20;99.70;;;;;;4961675;28;20283;-81
2022/03/03 07:30:00;;;;;;;65.25;60.25;;;-2.00;99.30;;;;;;4962700;29;20574;-81
2022/03/03 07:32:33;;;;;;;56.70;52.45;;;-1.90;98.90;;;;;;4962830;28;20196;-81
2022/03/03 07:35:03;;;;;;;46.45;41.75;;;-1.70;97.80;;;;;;4961921;28;20204;-80
2022/03/03 07:37:34;;;;;;;40.38;36.05;;;-1.70;96.80;;;;;;4962755;28;20629;-81
2022/03/03 07:40:06;;;;;;;38.63;34.78;;;-1.50;96.50;;;;;;4963233;28;20582;-81
2022/03/03 07:42:35;;;;;;;43.13;38.60;;;-1.40;96.30;;;;;;4963680;29;20569;-80
2022/03/03 07:45:03;;;;;;;41.50;37.30;;;-1.40;96.10;;;;;;4962622;28;20591;-81
2022/03/03 07:47:31;;;;;;;35.05;31.25;;;-1.20;96.40;;;;;;4962780;28;20223;-81
2022/03/03 07:49:58;;;;;;;32.50;29.10;;;-1.00;95.50;;;;;;4961922;28;20215;-81
2022/03/03 07:52:25;;;;;;;30.58;25.90;;;-0.80;93.90;;;;;;4961918;29;20208;-81
2022/03/03 07:54:52;;;;;;;38.30;26.52;;;-0.70;93.00;;;;;;4962679;29;20201;-80
2022/03/03 07:57:22;;;;;;;34.08;24.10;;;-0.50;93.40;;;;;;4961660;28;20242;-81
2022/03/03 08:00:01;;;;;;;34.03;23.83;;;-0.40;92.90;;;;;;4962512;29;20715;-81
2022/03/03 08:02:32;;;;;;;36.90;22.05;;;-0.30;92.20;;;;;;4962282;29;20211;-81
2022/03/03 08:05:02;;;;;;;32.95;20.42;;;-0.10;91.80;;;;;;4961995;29;20206;-80
2022/03/03 08:07:29;;;;;;;31.23;19.20;;;0.00;89.40;;;;;;4961854;28;20224;-81
2022/03/03 08:10:00;;;;;;;30.38;18.60;;;0.20;84.90;;;;;;4961988;29;20200;-81
2022/03/03 08:12:26;;;;;;;34.47;19.08;;;0.30;83.10;;;;;;4963227;29;20206;-81
2022/03/03 08:14:55;;;;;;;33.28;18.48;;;0.50;84.10;;;;;;4962330;29;20291;-81
2022/03/03 08:17:23;;;;;;;28.02;17.02;;;0.60;81.90;;;;;;4963260;28;20227;-81
2022/03/03 08:19:53;;;;;;;30.90;17.60;;;0.80;79.40;;;;;;4962385;29;20212;-81
2022/03/03 08:22:19;;;;;;;33.85;16.58;;;0.90;77.20;;;;;;4962251;29;20223;-81
2022/03/03 08:24:47;;;;;;;31.27;18.93;;;1.00;73.30;;;;;;4962483;29;20201;-81
2022/03/03 08:27:14;;;;;;;26.73;17.55;;;1.20;74.00;;;;;;4962696;28;20490;-81
2022/03/03 08:29:41;;;;;;;21.88;14.25;;;1.20;72.00;;;;;;4961783;28;20229;-81
2022/03/03 08:32:16;;;;;;;33.67;17.03;;;1.40;71.50;;;;;;4961886;29;20616;-81
2022/03/03 08:34:54;;;;;;;25.60;15.05;;;1.60;68.00;;;;;;4962048;29;20498;-81
2022/03/03 08:37:29;;;;;;;30.67;17.25;;;1.70;64.20;;;;;;4961904;28;20251;-81
2022/03/03 08:40:08;;;;;;;25.03;15.97;;;1.80;64.30;;;;;;4961758;29;20206;-80
2022/03/03 08:42:37;;;;;;;20.65;14.88;;;2.00;63.90;;;;;;4962305;29;20446;-81
2022/03/03 08:45:08;;;;;;;25.63;15.47;;;2.10;62.70;;;;;;4960992;29;20287;-81
2022/03/03 08:47:38;;;;;;;25.67;15.27;;;2.20;63.20;;;;;;4961853;28;20468;-81
2022/03/03 08:50:09;;;;;;;27.93;14.40;;;2.40;61.70;;;;;;4961573;28;20467;-81
2022/03/03 08:52:40;;;;;;;28.90;15.17;;;2.40;58.90;;;;;;4961875;29;20904;-81
2022/03/03 08:55:09;;;;;;;23.90;14.63;;;2.60;56.80;;;;;;4962077;29;20502;-81
2022/03/03 08:57:58;;;;;;;24.33;15.30;;;2.70;56.50;;;;;;4961511;28;20486;-81
2022/03/03 09:00:25;;;;;;;26.83;15.67;;;2.90;58.20;;;;;;4961356;28;20455;-80
2022/03/03 09:02:54;;;;;;;29.13;15.98;;;3.10;56.00;;;;;;4961977;28;20460;-81
2022/03/03 09:05:24;;;;;;;25.73;15.57;;;3.30;55.20;;;;;;4961870;28;20200;-81
2022/03/03 09:07:53;;;;;;;25.10;14.70;;;3.40;53.60;;;;;;4962067;28;20484;-83
2022/03/03 09:10:21;;;;;;;22.40;15.33;;;3.50;51.00;;;;;;4959669;28;20470;-82
2022/03/03 09:12:57;;;;;;;26.53;16.67;;;3.80;49.40;;;;;;4961895;28;20456;-81
2022/03/03 09:15:25;;;;;;;24.60;15.20;;;4.20;45.30;;;;;;4961803;29;20466;-81
2022/03/03 09:17:54;;;;;;;20.03;13.73;;;4.60;42.80;;;;;;4962505;28;20563;-81
2022/03/03 09:20:20;;;;;;;22.33;14.00;;;5.20;40.70;;;;;;4963085;28;20461;-81
2022/03/03 09:22:47;;;;;;;21.23;13.83;;;5.60;38.80;;;;;;4962527;29;20467;-82
2022/03/03 09:25:14;;;;;;;24.63;14.10;;;6.00;35.50;;;;;;4962670;29;20523;-82
2022/03/03 09:27:42;;;;;;;20.77;14.17;;;6.50;34.80;;;;;;4962649;28;21015;-81
2022/03/03 09:30:11;;;;;;;22.33;13.80;;;6.90;31.70;;;;;;4962408;29;20459;-83
2022/03/03 09:32:40;;;;;;;22.10;14.40;;;7.30;26.10;;;;;;4943142;29;20457;-82
2022/03/03 09:35:09;;;;;;;20.87;15.00;;;7.80;24.80;;;;;;4943298;29;20456;-82
2022/03/03 09:37:36;;;;;;;19.67;13.50;;;8.10;24.40;;;;;;4943135;29;20472;-82
2022/03/03 09:40:04;;;;;;;20.10;13.47;;;8.40;22.10;;;;;;4943026;29;20457;-81
2022/03/03 09:42:34;;;;;;;21.10;13.83;;;8.50;18.50;;;;;;4944184;29;20457;-81
2022/03/03 09:45:01;;;;;;;22.03;13.93;;;8.60;17.70;;;;;;4947388;29;20456;-82
2022/03/03 09:47:28;;;;;;;20.63;12.80;;;8.80;16.80;;;;;;4946801;29;20575;-82
2022/03/03 09:49:55;;;;;;;19.30;13.43;;;9.60;18.30;;;;;;4946760;29;20460;-82
2022/03/03 09:52:23;;;;;;;21.30;16.87;;;9.50;13.00;;;;;;4947439;29;20467;-82
2022/03/03 09:54:54;;;;;;;20.17;14.20;;;9.90;13.90;;;;;;4947530;29;20461;-82
2022/03/03 09:59:48;;;;;;;22.53;15.07;;;10.80;11.30;;;;;;4993006;23;20578;-83
2022/03/03 10:02:15;;;;;;;19.23;14.73;;;11.10;9.60;;;;;;4976247;28;20459;-84
2022/03/03 10:04:42;;;;;;;19.13;15.17;;;11.30;9.80;;;;;;4976438;28;20451;-83
2022/03/03 10:07:10;;;;;;;19.73;14.93;;;11.60;6.80;;;;;;4976610;28;20517;-84
2022/03/03 10:12:21;;;;;;;23.40;15.40;;;11.80;4.40;;;;;;4947012;28;20535;-84
2022/03/03 10:14:49;;;;;;;19.50;15.50;;;11.80;3.10;;;;;;4956186;29;20483;-82
2022/03/03 10:17:17;;;;;;;26.13;15.57;;;11.70;2.70;;;;;;4955505;29;20510;-83
2022/03/03 10:19:54;;;;;;;19.70;14.47;;;11.80;3.40;;;;;;4955734;29;20472;-81
2022/03/03 10:22:25;;;;;;;20.80;15.20;;;12.20;4.20;;;;;;4956531;29;20464;-83
2022/03/03 10:24:54;;;;;;;20.57;14.37;;;11.90;2.60;;;;;;4956511;29;20457;-83
2022/03/03 10:27:21;;;;;;;20.30;15.00;;;12.20;3.10;;;;;;4957035;29;20520;-84
2022/03/03 10:29:48;;;;;;;18.63;14.37;;;12.50;1.00;;;;;;4956978;29;20457;-83
2022/03/03 10:32:23;;;;;;;21.03;15.90;;;12.80;1.00;;;;;;4957653;29;20467;-83
2022/03/03 10:34:53;;;;;;;20.20;15.20;;;13.20;1.00;;;;;;4957145;29;20464;-83
2022/03/03 10:37:22;;;;;;;37.47;15.00;;;13.10;1.00;;;;;;4956879;29;20457;-83
2022/03/03 10:39:57;;;;;;;20.80;15.00;;;13.30;1.00;;;;;;4958427;29;20463;-83
2022/03/03 10:42:26;;;;;;;16.33;12.80;;;13.60;1.00;;;;;;4956729;29;20470;-82
2022/03/03 10:45:07;;;;;;;26.80;17.20;;;13.60;1.00;;;;;;4957005;29;20466;-83
2022/03/03 10:47:34;;;;;;;23.50;17.17;;;13.70;1.00;;;;;;4956442;29;20874;-82
2022/03/03 10:50:02;;;;;;;23.03;14.17;;;14.30;1.00;;;;;;4956863;29;20460;-84
2022/03/03 10:52:30;;;;;;;20.47;15.07;;;13.90;1.00;;;;;;4956305;29;20462;-83
2022/03/03 10:55:00;;;;;;;18.93;14.07;;;14.30;1.00;;;;;;4955843;28;20539;-84
2022/03/03 10:57:34;;;;;;;20.33;15.33;;;14.30;1.00;;;;;;4956971;29;20811;-83
2022/03/03 11:00:01;;;;;;;19.87;14.60;;;14.30;1.00;;;;;;4957316;29;20555;-84
2022/03/03 11:02:29;;;;;;;20.33;16.20;;;14.40;1.00;;;;;;4956430;29;20483;-84
2022/03/03 11:04:56;;;;;;;20.30;15.30;;;14.40;1.00;;;;;;4955947;29;20457;-83
2022/03/03 11:07:23;;;;;;;26.93;15.50;;;15.10;1.00;;;;;;4955536;29;20461;-84
2022/03/03 11:09:50;;;;;;;21.20;14.20;;;15.60;1.00;;;;;;4955458;29;20466;-84
2022/03/03 11:12:18;;;;;;;19.83;15.07;;;15.90;1.00;;;;;;4955885;29;20464;-84
2022/03/03 11:14:47;;;;;;;16.90;13.07;;;15.70;1.00;;;;;;4955772;29;20487;-83
2022/03/03 11:17:14;;;;;;;17.80;13.87;;;15.40;1.00;;;;;;4955506;29;20484;-83
2022/03/03 11:19:41;;;;;;;20.13;15.47;;;14.80;1.00;;;;;;4955484;29;20483;-84
2022/03/03 11:22:08;;;;;;;19.07;14.10;;;14.80;1.00;;;;;;4955905;29;20489;-83
2022/03/03 11:24:38;;;;;;;17.73;14.40;;;15.00;1.00;;;;;;4956683;29;20961;-84
2022/03/03 11:27:06;;;;;;;20.47;14.43;;;15.30;1.00;;;;;;4955745;29;20460;-83
2022/03/03 11:29:37;;;;;;;16.47;12.77;;;15.40;1.00;;;;;;4955630;29;20485;-83
2022/03/03 11:32:07;;;;;;;16.87;13.53;;;15.60;1.00;;;;;;4955809;29;20464;-84
2022/03/03 11:34:43;;;;;;;18.23;14.43;;;15.80;1.00;;;;;;4955442;29;20530;-83
2022/03/03 11:37:17;;;;;;;16.10;13.73;;;16.20;1.00;;;;;;4955143;29;20480;-84
2022/03/03 11:39:46;;;;;;;24.70;15.50;;;16.60;1.00;;;;;;4954924;29;20482;-84
2022/03/03 11:42:28;;;;;;;21.47;15.37;;;16.60;1.00;;;;;;4955036;28;20465;-83
2022/03/03 11:44:57;;;;;;;19.50;15.07;;;16.20;1.00;;;;;;4955194;29;20466;-82
2022/03/03 11:47:26;;;;;;;21.40;15.83;;;16.60;1.00;;;;;;4955105;29;20457;-83
2022/03/03 11:50:16;;;;;;;21.47;15.50;;;16.50;1.00;;;;;;4955215;29;20452;-83
2022/03/03 11:52:44;;;;;;;20.63;13.97;;;16.60;1.00;;;;;;4954871;29;20968;-83
2022/03/03 11:55:32;;;;;;;19.67;15.60;;;17.10;1.00;;;;;;4955154;29;20821;-83
2022/03/03 11:58:02;;;;;;;25.07;16.00;;;17.40;1.00;;;;;;4954617;29;20923;-83
2022/03/03 12:00:30;;;;;;;17.83;13.80;;;17.40;1.00;;;;;;4954570;29;20476;-83
2022/03/03 12:03:03;;;;;;;17.53;14.50;;;16.60;1.00;;;;;;4955595;29;20956;-83
2022/03/03 12:05:39;;;;;;;19.13;13.23;;;17.20;1.00;;;;;;4955134;28;20461;-82
2022/03/03 12:08:27;;;;;;;16.50;13.53;;;17.70;1.00;;;;;;4956509;29;20740;-84
2022/03/03 12:11:00;;;;;;;19.17;14.20;;;18.10;1.00;;;;;;4954841;29;20471;-82
2022/03/03 12:13:28;;;;;;;17.67;14.43;;;18.60;1.00;;;;;;4954751;29;20462;-81
2022/03/03 12:16:15;;;;;;;18.13;14.90;;;18.50;1.00;;;;;;4954074;29;20543;-83
2022/03/03 12:18:44;;;;;;;21.53;15.43;;;18.40;1.00;;;;;;4953677;29;20483;-83
2022/03/03 12:21:28;;;;;;;20.10;14.50;;;18.40;1.00;;;;;;4954552;29;20469;-83
2022/03/03 12:24:32;;;;;;;18.33;14.33;;;18.40;1.00;;;;;;4953237;29;20471;-83
2022/03/03 12:27:08;;;;;;;18.33;14.60;;;18.90;1.00;;;;;;4954384;29;20453;-83
2022/03/03 12:29:37;;;;;;;18.30;14.40;;;18.00;1.00;;;;;;4952748;29;20996;-83
2022/03/03 12:32:33;;;;;;;19.80;16.30;;;18.40;1.00;;;;;;4954391;29;20474;-83
2022/03/03 12:35:04;;;;;;;19.03;15.37;;;18.30;1.00;;;;;;4954321;29;20459;-83
2022/03/03 12:37:32;;;;;;;20.60;14.40;;;18.60;1.00;;;;;;4953307;29;20487;-83
2022/03/03 12:40:01;;;;;;;20.00;14.13;;;18.90;1.00;;;;;;4953784;29;20957;-83
2022/03/03 12:42:30;;;;;;;17.50;13.23;;;19.70;1.00;;;;;;4952331;29;20460;-83